createdAt,value
2023-03-29T00:08:04.615Z,-2.97
2023-03-29T00:23:08.187Z,-2.91
2023-03-29T00:38:10.311Z,-2.92
2023-03-29T00:53:30.955Z,-2.90
2023-03-29T01:08:40.528Z,-2.94
2023-03-29T01:23:52.637Z,-3.01
2023-03-29T01:38:58.220Z,-3.04
2023-03-29T01:54:33.484Z,-3.13
2023-03-29T02:09:38.237Z,-3.26
2023-03-29T02:24:44.889Z,-3.39
2023-03-29T02:39:49.966Z,-3.51
2023-03-29T02:54:54.711Z,-3.71
2023-03-29T03:09:57.292Z,-3.81
2023-03-29T03:24:59.358Z,-3.98
2023-03-29T03:40:01.511Z,-4.05
2023-03-29T03:55:03.703Z,-4.24
2023-03-29T04:10:06.599Z,-4.52
2023-03-29T04:25:10.577Z,-4.88
2023-03-29T04:40:14.668Z,-5.08
2023-03-29T04:55:17.048Z,-4.54
2023-03-29T05:10:19.285Z,-4.54
2023-03-29T05:25:21.294Z,-3.95
2023-03-29T05:40:26.448Z,-3.30
2023-03-29T05:55:28.611Z,-2.50
2023-03-29T06:10:30.644Z,-1.72
2023-03-29T06:25:32.642Z,-1.11
2023-03-29T06:40:34.837Z,-0.57
2023-03-29T06:55:36.945Z,-0.16
2023-03-29T07:10:41.604Z,0.29
2023-03-29T07:25:45.049Z,0.80
2023-03-29T07:40:47.029Z,1.21
2023-03-29T07:55:50.121Z,1.70
2023-03-29T08:10:53.271Z,2.03
2023-03-29T08:25:55.248Z,2.38
2023-03-29T08:40:57.362Z,2.84
2023-03-29T08:56:03.386Z,3.13
2023-03-29T09:11:26.376Z,3.38
2023-03-29T09:26:54.928Z,3.81
2023-03-29T09:42:09.404Z,4.11
2023-03-29T09:57:16.990Z,4.45
2023-03-29T10:12:20.191Z,4.53
2023-03-29T10:27:30.544Z,4.70
2023-03-29T10:42:32.589Z,4.91
2023-03-29T10:57:50.282Z,5.32
2023-03-29T11:13:14.349Z,5.40
2023-03-29T11:28:25.000Z,5.62
2023-03-29T11:43:51.270Z,5.76
2023-03-29T11:58:59.867Z,6.00
2023-03-29T12:14:15.861Z,6.31
2023-03-29T12:29:45.859Z,6.36
2023-03-29T12:45:06.611Z,6.63
2023-03-29T13:00:22.737Z,6.68
2023-03-29T13:15:27.232Z,6.77
2023-03-29T13:30:56.063Z,6.91
2023-03-29T13:45:58.053Z,7.07
2023-03-29T14:01:07.804Z,7.10
2023-03-29T14:16:12.204Z,7.10
2023-03-29T14:31:26.341Z,7.07
2023-03-29T14:46:28.919Z,6.90
2023-03-29T15:01:31.597Z,6.91
2023-03-29T15:16:34.066Z,6.86
2023-03-29T15:31:39.431Z,6.73
2023-03-29T15:46:42.108Z,6.63
2023-03-29T16:01:44.969Z,6.49
2023-03-29T16:16:47.545Z,6.43
2023-03-29T16:31:50.621Z,6.04
2023-03-29T16:46:58.009Z,5.76
2023-03-29T17:02:00.205Z,5.07
2023-03-29T17:17:02.351Z,4.48
2023-03-29T17:32:04.441Z,3.98
2023-03-29T17:47:07.641Z,3.64
2023-03-29T18:02:18.364Z,3.49
2023-03-29T18:17:22.577Z,3.28
2023-03-29T18:32:26.269Z,3.28
2023-03-29T18:47:29.919Z,3.05
2023-03-29T19:02:33.073Z,2.97
2023-03-29T19:17:38.573Z,2.92
2023-03-29T19:32:41.711Z,3.04
2023-03-29T19:47:48.027Z,3.01
2023-03-29T20:02:50.553Z,2.84
2023-03-29T20:17:59.481Z,2.57
2023-03-29T20:33:02.036Z,2.15
2023-03-29T20:48:11.024Z,1.60
2023-03-29T21:03:13.306Z,1.33
2023-03-29T21:18:15.977Z,1.12
2023-03-29T21:33:18.058Z,1.05
2023-03-29T21:48:20.072Z,1.12
2023-03-29T22:03:22.083Z,1.31
2023-03-29T22:18:24.485Z,1.56
2023-03-29T22:33:26.651Z,1.74
2023-03-29T22:48:28.640Z,1.91
2023-03-29T23:03:30.751Z,2.19
2023-03-29T23:18:35.103Z,2.32
2023-03-29T23:33:40.534Z,2.56
2023-03-29T23:48:49.526Z,2.79
